sensor_id;sensor_type;location;lat;lon;timestamp;pressure;altitude;pressure_sealevel;temperature;humidity
11525;BME280;5819;49.648;8.330;2024-02-15T00:01:35;100826.97;;;10.40;100.00
11525;BME280;5819;49.648;8.330;2024-02-15T00:04:03;100828.09;;;10.32;100.00
11525;BME280;5819;49.648;8.330;2024-02-15T00:06:32;100819.69;;;10.51;100.00
11525;BME280;5819;49.648;8.330;2024-02-15T00:09:00;100821.03;;;10.36;100.00
11525;BME280;5819;49.648;8.330;2024-02-15T00:11:28;100806.81;;;10.46;100.00
11525;BME280;5819;49.648;8.330;2024-02-15T00:13:58;100807.84;;;10.42;100.00
11525;BME280;5819;49.648;8.330;2024-02-15T00:16:26;100808.69;;;10.43;100.00
11525;BME280;5819;49.648;8.330;2024-02-15T00:18:55;100801.81;;;10.40;100.00
11525;BME280;5819;49.648;8.330;2024-02-15T00:21:23;100796.16;;;10.54;100.00
11525;BME280;5819;49.648;8.330;2024-02-15T00:23:51;100791.69;;;10.57;100.00
11525;BME280;5819;49.648;8.330;2024-02-15T00:26:22;100788.28;;;10.55;100.00
11525;BME280;5819;49.648;8.330;2024-02-15T00:28:50;100792.81;;;10.50;100.00
11525;BME280;5819;49.648;8.330;2024-02-15T00:31:19;100796.63;;;10.40;100.00
11525;BME280;5819;49.648;8.330;2024-02-15T00:33:47;100796.69;;;10.39;100.00
11525;BME280;5819;49.648;8.330;2024-02-15T00:36:16;100807.19;;;10.36;100.00
11525;BME280;5819;49.648;8.330;2024-02-15T00:38:44;100800.81;;;10.44;100.00
11525;BME280;5819;49.648;8.330;2024-02-15T00:41:12;100805.13;;;10.45;100.00
11525;BME280;5819;49.648;8.330;2024-02-15T00:43:40;100809.09;;;10.30;100.00
11525;BME280;5819;49.648;8.330;2024-02-15T00:46:08;100811.00;;;10.25;100.00
11525;BME280;5819;49.648;8.330;2024-02-15T00:48:38;100818.22;;;10.17;100.00
11525;BME280;5819;49.648;8.330;2024-02-15T00:51:07;100812.16;;;10.17;100.00
11525;BME280;5819;49.648;8.330;2024-02-15T00:53:35;100817.53;;;10.11;100.00
11525;BME280;5819;49.648;8.330;2024-02-15T00:56:04;100819.28;;;10.10;100.00
11525;BME280;5819;49.648;8.330;2024-02-15T00:58:32;100819.28;;;10.10;100.00
11525;BME280;5819;49.648;8.330;2024-02-15T01:01:00;100822.78;;;10.09;100.00
11525;BME280;5819;49.648;8.330;2024-02-15T01:03:28;100822.81;;;10.08;100.00
11525;BME280;5819;49.648;8.330;2024-02-15T01:05:57;100822.06;;;10.04;100.00
11525;BME280;5819;49.648;8.330;2024-02-15T01:08:25;100817.09;;;9.98;100.00
11525;BME280;5819;49.648;8.330;2024-02-15T01:10:53;100819.72;;;9.97;100.00
11525;BME280;5819;49.648;8.330;2024-02-15T01:13:21;100820.75;;;9.91;100.00
11525;BME280;5819;49.648;8.330;2024-02-15T01:15:48;100829.41;;;9.92;100.00
11525;BME280;5819;49.648;8.330;2024-02-15T01:18:16;100824.19;;;9.93;100.00
11525;BME280;5819;49.648;8.330;2024-02-15T01:20:44;100824.97;;;9.95;100.00
11525;BME280;5819;49.648;8.330;2024-02-15T01:23:14;100832.75;;;9.95;100.00
11525;BME280;5819;49.648;8.330;2024-02-15T01:25:42;100825.66;;;10.00;100.00
11525;BME280;5819;49.648;8.330;2024-02-15T01:28:10;100822.94;;;10.05;100.00
11525;BME280;5819;49.648;8.330;2024-02-15T01:30:38;100828.59;;;10.17;100.00
11525;BME280;5819;49.648;8.330;2024-02-15T01:33:06;100830.31;;;10.18;100.00
11525;BME280;5819;49.648;8.330;2024-02-15T01:35:35;100823.41;;;10.17;100.00
11525;BME280;5819;49.648;8.330;2024-02-15T01:38:03;100818.69;;;10.28;100.00
11525;BME280;5819;49.648;8.330;2024-02-15T01:40:33;100812.63;;;10.28;100.00
11525;BME280;5819;49.648;8.330;2024-02-15T01:43:01;100807.38;;;10.31;100.00
11525;BME280;5819;49.648;8.330;2024-02-15T01:45:29;100804.75;;;10.31;100.00
11525;BME280;5819;49.648;8.330;2024-02-15T01:47:58;100811.56;;;10.35;100.00
11525;BME280;5819;49.648;8.330;2024-02-15T01:50:26;100811.03;;;10.24;100.00
11525;BME280;5819;49.648;8.330;2024-02-15T01:52:56;100806.22;;;10.12;100.00
11525;BME280;5819;49.648;8.330;2024-02-15T01:55:24;100809.78;;;10.09;100.00
11525;BME280;5819;49.648;8.330;2024-02-15T01:57:55;100821.19;;;10.05;100.00
11525;BME280;5819;49.648;8.330;2024-02-15T02:00:23;100820.38;;;10.03;100.00
11525;BME280;5819;49.648;8.330;2024-02-15T02:02:53;100809.88;;;10.06;100.00
11525;BME280;5819;49.648;8.330;2024-02-15T02:05:22;100817.75;;;10.03;100.00
11525;BME280;5819;49.648;8.330;2024-02-15T02:07:49;100809.22;;;10.00;100.00
11525;BME280;5819;49.648;8.330;2024-02-15T02:10:17;100812.75;;;9.99;100.00
11525;BME280;5819;49.648;8.330;2024-02-15T02:12:45;100810.22;;;9.96;100.00
11525;BME280;5819;49.648;8.330;2024-02-15T02:15:14;100811.31;;;9.88;100.00
11525;BME280;5819;49.648;8.330;2024-02-15T02:17:42;100812.28;;;9.86;100.00
11525;BME280;5819;49.648;8.330;2024-02-15T02:20:11;100815.06;;;9.80;100.00
11525;BME280;5819;49.648;8.330;2024-02-15T02:22:41;100813.34;;;9.79;100.00
11525;BME280;5819;49.648;8.330;2024-02-15T02:25:13;100816.13;;;9.74;100.00
11525;BME280;5819;49.648;8.330;2024-02-15T02:27:41;100816.88;;;9.78;100.00
11525;BME280;5819;49.648;8.330;2024-02-15T02:30:13;100811.56;;;9.81;100.00
11525;BME280;5819;49.648;8.330;2024-02-15T02:32:43;100817.56;;;9.83;100.00
11525;BME280;5819;49.648;8.330;2024-02-15T02:35:12;100806.28;;;9.84;100.00
11525;BME280;5819;49.648;8.330;2024-02-15T02:37:42;100801.78;;;9.89;100.00
11525;BME280;5819;49.648;8.330;2024-02-15T02:40:10;100798.16;;;9.95;100.00
11525;BME280;5819;49.648;8.330;2024-02-15T02:42:48;100796.63;;;9.87;100.00
11525;BME280;5819;49.648;8.330;2024-02-15T02:45:16;100798.47;;;9.84;100.00
11525;BME280;5819;49.648;8.330;2024-02-15T02:47:46;100798.53;;;9.82;100.00
11525;BME280;5819;49.648;8.330;2024-02-15T02:50:20;100796.84;;;9.81;100.00
11525;BME280;5819;49.648;8.330;2024-02-15T02:52:49;100796.69;;;9.86;100.00
11525;BME280;5819;49.648;8.330;2024-02-15T02:55:17;100793.25;;;9.85;100.00
11525;BME280;5819;49.648;8.330;2024-02-15T02:57:45;100793.25;;;9.85;100.00
11525;BME280;5819;49.648;8.330;2024-02-15T03:00:15;100790.50;;;9.90;100.00
11525;BME280;5819;49.648;8.330;2024-02-15T03:02:45;100792.84;;;9.98;100.00
11525;BME280;5819;49.648;8.330;2024-02-15T03:05:13;100782.59;;;9.93;100.00
11525;BME280;5819;49.648;8.330;2024-02-15T03:07:41;100784.50;;;9.88;100.00
11525;BME280;5819;49.648;8.330;2024-02-15T03:10:10;100783.78;;;9.83;100.00
11525;BME280;5819;49.648;8.330;2024-02-15T03:12:41;100781.41;;;9.77;100.00
11525;BME280;5819;49.648;8.330;2024-02-15T03:15:14;100785.84;;;9.73;100.00
11525;BME280;5819;49.648;8.330;2024-02-15T03:17:43;100795.59;;;9.67;100.00
11525;BME280;5819;49.648;8.330;2024-02-15T03:20:12;100794.81;;;9.63;100.00
11525;BME280;5819;49.648;8.330;2024-02-15T03:22:52;100784.50;;;9.62;100.00
11525;BME280;5819;49.648;8.330;2024-02-15T03:25:21;100796.72;;;9.58;100.00
11525;BME280;5819;49.648;8.330;2024-02-15T03:27:50;100792.41;;;9.57;100.00
11525;BME280;5819;49.648;8.330;2024-02-15T03:30:22;100787.25;;;9.56;100.00
11525;BME280;5819;49.648;8.330;2024-02-15T03:32:50;100793.28;;;9.58;100.00
11525;BME280;5819;49.648;8.330;2024-02-15T03:35:20;100794.97;;;9.59;100.00
11525;BME280;5819;49.648;8.330;2024-02-15T03:37:49;100801.94;;;9.57;100.00
11525;BME280;5819;49.648;8.330;2024-02-15T03:40:19;100797.66;;;9.56;100.00
11525;BME280;5819;49.648;8.330;2024-02-15T03:42:46;100803.75;;;9.55;100.00
11525;BME280;5819;49.648;8.330;2024-02-15T03:45:17;100810.69;;;9.54;100.00
11525;BME280;5819;49.648;8.330;2024-02-15T03:47:46;100803.84;;;9.52;100.00
11525;BME280;5819;49.648;8.330;2024-02-15T03:50:16;100807.28;;;9.52;100.00
11525;BME280;5819;49.648;8.330;2024-02-15T03:52:45;100806.44;;;9.52;100.00
11525;BME280;5819;49.648;8.330;2024-02-15T03:55:13;100805.44;;;9.56;100.00
11525;BME280;5819;49.648;8.330;2024-02-15T03:57:42;100805.41;;;9.57;100.00
11525;BME280;5819;49.648;8.330;2024-02-15T04:00:12;100799.47;;;9.54;100.00
11525;BME280;5819;49.648;8.330;2024-02-15T04:02:41;100806.41;;;9.53;100.00
11525;BME280;5819;49.648;8.330;2024-02-15T04:05:11;100802.84;;;9.56;100.00
11525;BME280;5819;49.648;8.330;2024-02-15T04:07:39;100801.94;;;9.57;100.00
11525;BME280;5819;49.648;8.330;2024-02-15T04:10:07;100803.69;;;9.56;100.00
11525;BME280;5819;49.648;8.330;2024-02-15T04:12:36;100805.25;;;9.62;100.00
11525;BME280;5819;49.648;8.330;2024-02-15T04:15:04;100798.19;;;9.67;100.00
11525;BME280;5819;49.648;8.330;2024-02-15T04:17:39;100800.56;;;9.73;100.00
11525;BME280;5819;49.648;8.330;2024-02-15T04:20:10;100798.47;;;9.84;100.00
11525;BME280;5819;49.648;8.330;2024-02-15T04:22:39;100802.81;;;9.83;100.00
11525;BME280;5819;49.648;8.330;2024-02-15T04:25:09;100795.00;;;9.85;100.00
11525;BME280;5819;49.648;8.330;2024-02-15T04:27:44;100803.69;;;9.84;100.00
11525;BME280;5819;49.648;8.330;2024-02-15T04:30:13;100795.94;;;9.82;100.00
11525;BME280;5819;49.648;8.330;2024-02-15T04:32:42;100796.97;;;9.77;100.00
11525;BME280;5819;49.648;8.330;2024-02-15T04:35:12;100804.03;;;9.73;100.00
11525;BME280;5819;49.648;8.330;2024-02-15T04:37:41;100794.56;;;9.71;100.00
11525;BME280;5819;49.648;8.330;2024-02-15T04:40:09;100793.56;;;9.75;100.00
11525;BME280;5819;49.648;8.330;2024-02-15T04:42:40;100793.38;;;9.81;100.00
11525;BME280;5819;49.648;8.330;2024-02-15T04:45:11;100783.84;;;9.81;100.00
11525;BME280;5819;49.648;8.330;2024-02-15T04:47:41;100782.19;;;9.79;100.00
11525;BME280;5819;49.648;8.330;2024-02-15T04:50:11;100778.66;;;9.81;100.00
11525;BME280;5819;49.648;8.330;2024-02-15T04:52:40;100780.34;;;9.82;100.00
11525;BME280;5819;49.648;8.330;2024-02-15T04:55:12;100781.19;;;9.83;100.00
11525;BME280;5819;49.648;8.330;2024-02-15T04:57:42;100775.91;;;9.86;100.00
11525;BME280;5819;49.648;8.330;2024-02-15T05:00:10;100777.66;;;9.85;100.00
11525;BME280;5819;49.648;8.330;2024-02-15T05:02:40;100764.66;;;9.85;100.00
11525;BME280;5819;49.648;8.330;2024-02-15T05:05:08;100771.66;;;9.83;100.00
11525;BME280;5819;49.648;8.330;2024-02-15T05:07:38;100765.69;;;9.80;100.00
11525;BME280;5819;49.648;8.330;2024-02-15T05:10:07;100763.84;;;9.83;100.00
11525;BME280;5819;49.648;8.330;2024-02-15T05:12:37;100760.91;;;9.94;100.00
11525;BME280;5819;49.648;8.330;2024-02-15T05:15:05;100752.03;;;10.00;100.00
11525;BME280;5819;49.648;8.330;2024-02-15T05:17:39;100755.38;;;10.03;100.00
11525;BME280;5819;49.648;8.330;2024-02-15T05:20:09;100748.56;;;10.01;100.00
11525;BME280;5819;49.648;8.330;2024-02-15T05:22:42;100750.03;;;10.08;100.00
11525;BME280;5819;49.648;8.330;2024-02-15T05:25:16;100747.44;;;10.08;100.00
11525;BME280;5819;49.648;8.330;2024-02-15T05:27:51;100749.16;;;10.09;100.00
11525;BME280;5819;49.648;8.330;2024-02-15T05:30:21;100753.00;;;9.97;100.00
11525;BME280;5819;49.648;8.330;2024-02-15T05:32:49;100749.81;;;9.89;100.00
11525;BME280;5819;49.648;8.330;2024-02-15T05:35:17;100749.81;;;9.89;100.00
11525;BME280;5819;49.648;8.330;2024-02-15T05:37:46;100750.56;;;9.93;100.00
11525;BME280;5819;49.648;8.330;2024-02-15T05:40:15;100742.41;;;10.03;100.00
11525;BME280;5819;49.648;8.330;2024-02-15T05:42:44;100745.00;;;10.03;100.00
11525;BME280;5819;49.648;8.330;2024-02-15T05:45:30;100745.47;;;10.16;100.00
11525;BME280;5819;49.648;8.330;2024-02-15T05:48:00;100741.63;;;10.01;100.00
11525;BME280;5819;49.648;8.330;2024-02-15T05:50:28;100743.47;;;9.98;100.00
11525;BME280;5819;49.648;8.330;2024-02-15T05:52:59;100740.97;;;9.95;100.00
11525;BME280;5819;49.648;8.330;2024-02-15T05:55:28;100736.78;;;9.91;100.00
11525;BME280;5819;49.648;8.330;2024-02-15T05:57:58;100733.22;;;9.93;100.00
11525;BME280;5819;49.648;8.330;2024-02-15T06:00:25;100733.00;;;9.99;100.00
11525;BME280;5819;49.648;8.330;2024-02-15T06:02:56;100723.41;;;10.01;100.00
11525;BME280;5819;49.648;8.330;2024-02-15T06:05:24;100721.28;;;10.12;100.00
11525;BME280;5819;49.648;8.330;2024-02-15T06:07:52;100716.00;;;10.15;100.00
11525;BME280;5819;49.648;8.330;2024-02-15T06:10:22;100719.28;;;10.22;100.00
11525;BME280;5819;49.648;8.330;2024-02-15T06:12:49;100718.38;;;10.23;100.00
11525;BME280;5819;49.648;8.330;2024-02-15T06:15:17;100712.06;;;10.30;100.00
11525;BME280;5819;49.648;8.330;2024-02-15T06:17:46;100716.16;;;10.36;100.00
11525;BME280;5819;49.648;8.330;2024-02-15T06:20:15;100719.00;;;10.29;100.00
11525;BME280;5819;49.648;8.330;2024-02-15T06:22:45;100722.16;;;10.13;100.00
11525;BME280;5819;49.648;8.330;2024-02-15T06:25:13;100730.69;;;10.18;100.00
11525;BME280;5819;49.648;8.330;2024-02-15T06:27:42;100718.47;;;10.20;100.00
11525;BME280;5819;49.648;8.330;2024-02-15T06:30:11;100717.97;;;10.09;100.00
11525;BME280;5819;49.648;8.330;2024-02-15T06:32:57;100707.72;;;10.04;100.00
11525;BME280;5819;49.648;8.330;2024-02-15T06:35:43;100708.72;;;10.00;100.00
11525;BME280;5819;49.648;8.330;2024-02-15T06:38:29;100705.50;;;9.94;100.00
11525;BME280;5819;49.648;8.330;2024-02-15T06:41:14;100703.59;;;9.99;100.00
11525;BME280;5819;49.648;8.330;2024-02-15T06:43:43;100704.59;;;9.95;100.00
11525;BME280;5819;49.648;8.330;2024-02-15T06:46:11;100704.75;;;9.90;100.00
11525;BME280;5819;49.648;8.330;2024-02-15T06:48:42;100710.00;;;9.88;100.00
11525;BME280;5819;49.648;8.330;2024-02-15T06:51:12;100709.94;;;9.90;100.00
11525;BME280;5819;49.648;8.330;2024-02-15T06:53:42;100715.16;;;9.90;100.00
11525;BME280;5819;49.648;8.330;2024-02-15T06:56:11;100715.88;;;9.94;100.00
11525;BME280;5819;49.648;8.330;2024-02-15T06:58:41;100718.09;;;10.04;100.00
11525;BME280;5819;49.648;8.330;2024-02-15T07:01:10;100718.00;;;10.07;100.00
11525;BME280;5819;49.648;8.330;2024-02-15T07:03:40;100718.84;;;10.08;100.00
11525;BME280;5819;49.648;8.330;2024-02-15T07:06:11;100716.31;;;10.06;100.00
11525;BME280;5819;49.648;8.330;2024-02-15T07:08:40;100717.06;;;10.10;100.00
11525;BME280;5819;49.648;8.330;2024-02-15T07:11:09;100720.56;;;10.09;100.00
11525;BME280;5819;49.648;8.330;2024-02-15T07:13:36;100722.03;;;10.17;100.00
11525;BME280;5819;49.648;8.330;2024-02-15T07:16:07;100717.84;;;10.12;100.00
11525;BME280;5819;49.648;8.330;2024-02-15T07:18:36;100719.47;;;10.16;100.00
11525;BME280;5819;49.648;8.330;2024-02-15T07:21:04;100724.63;;;10.17;100.00
11525;BME280;5819;49.648;8.330;2024-02-15T07:23:37;100721.78;;;10.23;100.00
11525;BME280;5819;49.648;8.330;2024-02-15T07:26:05;100728.06;;;10.18;100.00
11525;BME280;5819;49.648;8.330;2024-02-15T07:28:33;100720.41;;;10.13;100.00
11525;BME280;5819;49.648;8.330;2024-02-15T07:31:01;100715.13;;;10.16;100.00
11525;BME280;5819;49.648;8.330;2024-02-15T07:33:29;100725.47;;;10.18;100.00
11525;BME280;5819;49.648;8.330;2024-02-15T07:35:58;100725.47;;;10.18;100.00
11525;BME280;5819;49.648;8.330;2024-02-15T07:38:27;100717.41;;;10.25;100.00
11525;BME280;5819;49.648;8.330;2024-02-15T07:40:56;100719.19;;;10.23;100.00
11525;BME280;5819;49.648;8.330;2024-02-15T07:43:24;100722.34;;;10.33;100.00
11525;BME280;5819;49.648;8.330;2024-02-15T07:45:53;100708.91;;;10.45;100.00
11525;BME280;5819;49.648;8.330;2024-02-15T07:48:20;100720.06;;;10.47;100.00
11525;BME280;5819;49.648;8.330;2024-02-15T07:50:48;100722.47;;;10.53;100.00
11525;BME280;5819;49.648;8.330;2024-02-15T07:53:18;100726.81;;;10.53;100.00
11525;BME280;5819;49.648;8.330;2024-02-15T07:55:46;100726.38;;;10.42;100.00
11525;BME280;5819;49.648;8.330;2024-02-15T07:58:15;100729.53;;;10.50;100.00
11525;BME280;5819;49.648;8.330;2024-02-15T08:00:45;100727.94;;;10.46;100.00
11525;BME280;5819;49.648;8.330;2024-02-15T08:03:13;100733.88;;;10.49;100.00
11525;BME280;5819;49.648;8.330;2024-02-15T08:05:42;100733.66;;;10.55;100.00
11525;BME280;5819;49.648;8.330;2024-02-15T08:08:11;100733.66;;;10.55;100.00
11525;BME280;5819;49.648;8.330;2024-02-15T08:10:40;100732.84;;;10.55;100.00
11525;BME280;5819;49.648;8.330;2024-02-15T08:13:10;100731.84;;;10.57;100.00
11525;BME280;5819;49.648;8.330;2024-02-15T08:15:38;100724.78;;;10.61;100.00
11525;BME280;5819;49.648;8.330;2024-02-15T08:18:08;100722.88;;;10.66;100.00
11525;BME280;5819;49.648;8.330;2024-02-15T08:20:41;100732.94;;;10.75;100.00
11525;BME280;5819;49.648;8.330;2024-02-15T08:23:12;100724.13;;;10.79;100.00
11525;BME280;5819;49.648;8.330;2024-02-15T08:25:43;100721.25;;;10.87;100.00
11525;BME280;5819;49.648;8.330;2024-02-15T08:28:12;100724.41;;;10.95;100.00
11525;BME280;5819;49.648;8.330;2024-02-15T08:30:42;100719.63;;;11.06;100.00
11525;BME280;5819;49.648;8.330;2024-02-15T08:33:11;100714.00;;;11.16;100.00
11525;BME280;5819;49.648;8.330;2024-02-15T08:35:40;100705.78;;;11.27;100.00
11525;BME280;5819;49.648;8.330;2024-02-15T08:38:10;100708.84;;;11.37;100.00
11525;BME280;5819;49.648;8.330;2024-02-15T08:40:47;100699.38;;;11.56;100.00
11525;BME280;5819;49.648;8.330;2024-02-15T08:43:18;100703.31;;;11.44;100.00
11525;BME280;5819;49.648;8.330;2024-02-15T08:45:48;100698.13;;;11.44;100.00
11525;BME280;5819;49.648;8.330;2024-02-15T08:48:18;100690.75;;;11.55;100.00
11525;BME280;5819;49.648;8.330;2024-02-15T08:50:50;100679.91;;;11.64;100.00
11525;BME280;5819;49.648;8.330;2024-02-15T08:53:20;100680.41;;;11.74;100.00
11525;BME280;5819;49.648;8.330;2024-02-15T08:55:55;100687.81;;;11.63;100.00
11525;BME280;5819;49.648;8.330;2024-02-15T08:58:26;100676.06;;;11.75;100.00
11525;BME280;5819;49.648;8.330;2024-02-15T09:00:58;100678.72;;;11.93;100.00
11525;BME280;5819;49.648;8.330;2024-02-15T09:03:29;100680.81;;;11.85;100.00
11525;BME280;5819;49.648;8.330;2024-02-15T09:05:59;100677.88;;;11.93;100.00
11525;BME280;5819;49.648;8.330;2024-02-15T09:08:36;100681.19;;;11.96;100.00
11525;BME280;5819;49.648;8.330;2024-02-15T09:11:09;100674.03;;;12.01;100.00
11525;BME280;5819;49.648;8.330;2024-02-15T09:13:40;100671.28;;;12.04;100.00
11525;BME280;5819;49.648;8.330;2024-02-15T09:16:12;100669.69;;;12.20;100.00
11525;BME280;5819;49.648;8.330;2024-02-15T09:18:47;100669.97;;;12.35;100.00
11525;BME280;5819;49.648;8.330;2024-02-15T09:21:18;100660.94;;;12.42;100.00
11525;BME280;5819;49.648;8.330;2024-02-15T09:23:49;100657.06;;;12.50;100.00
11525;BME280;5819;49.648;8.330;2024-02-15T09:26:22;100658.41;;;12.59;100.00
11525;BME280;5819;49.648;8.330;2024-02-15T09:28:52;100648.59;;;12.64;100.00
11525;BME280;5819;49.648;8.330;2024-02-15T09:31:22;100659.25;;;12.78;100.00
11525;BME280;5819;49.648;8.330;2024-02-15T09:33:53;100646.69;;;12.86;100.00
11525;BME280;5819;49.648;8.330;2024-02-15T09:36:26;100646.63;;;12.69;100.00
11525;BME280;5819;49.648;8.330;2024-02-15T09:38:56;100651.78;;;12.71;100.00
11525;BME280;5819;49.648;8.330;2024-02-15T09:41:28;100646.91;;;12.82;100.00
11525;BME280;5819;49.648;8.330;2024-02-15T09:43:58;100645.47;;;12.93;100.00
11525;BME280;5819;49.648;8.330;2024-02-15T09:46:32;100645.28;;;12.79;100.00
11525;BME280;5819;49.648;8.330;2024-02-15T09:49:04;100644.50;;;12.77;100.00
11525;BME280;5819;49.648;8.330;2024-02-15T09:51:36;100642.91;;;12.75;100.00
11525;BME280;5819;49.648;8.330;2024-02-15T09:54:08;100630.66;;;12.94;100.00
11525;BME280;5819;49.648;8.330;2024-02-15T09:56:41;100627.84;;;12.98;100.00
11525;BME280;5819;49.648;8.330;2024-02-15T09:59:11;100622.88;;;12.92;100.00
11525;BME280;5819;49.648;8.330;2024-02-15T10:01:40;100620.97;;;12.96;100.00
11525;BME280;5819;49.648;8.330;2024-02-15T10:04:09;100620.66;;;13.21;100.00
11525;BME280;5819;49.648;8.330;2024-02-15T10:06:43;100625.84;;;13.22;100.00
11525;BME280;5819;49.648;8.330;2024-02-15T10:09:26;100624.34;;;13.17;100.00
11525;BME280;5819;49.648;8.330;2024-02-15T10:11:58;100614.72;;;13.36;100.00
11525;BME280;5819;49.648;8.330;2024-02-15T10:14:29;100618.53;;;13.29;100.00
11525;BME280;5819;49.648;8.330;2024-02-15T10:17:05;100628.59;;;13.19;100.00
11525;BME280;5819;49.648;8.330;2024-02-15T10:19:37;100627.75;;;13.19;100.00
11525;BME280;5819;49.648;8.330;2024-02-15T10:22:07;100630.16;;;13.23;100.00
11525;BME280;5819;49.648;8.330;2024-02-15T10:24:36;100633.13;;;13.16;100.00
11525;BME280;5819;49.648;8.330;2024-02-15T10:27:08;100626.59;;;13.05;100.00
11525;BME280;5819;49.648;8.330;2024-02-15T10:29:40;100638.44;;;12.95;100.00
11525;BME280;5819;49.648;8.330;2024-02-15T10:32:10;100634.88;;;12.96;100.00
11525;BME280;5819;49.648;8.330;2024-02-15T10:34:43;100629.13;;;12.90;100.00
11525;BME280;5819;49.648;8.330;2024-02-15T10:37:15;100631.88;;;12.87;100.00
11525;BME280;5819;49.648;8.330;2024-02-15T10:40:04;100629.91;;;12.92;100.00
11525;BME280;5819;49.648;8.330;2024-02-15T10:42:38;100625.38;;;12.95;100.00
11525;BME280;5819;49.648;8.330;2024-02-15T10:45:10;100616.53;;;12.98;100.00
11525;BME280;5819;49.648;8.330;2024-02-15T10:47:40;100609.25;;;13.04;100.00
11525;BME280;5819;49.648;8.330;2024-02-15T10:50:10;100602.09;;;13.27;100.00
11525;BME280;5819;49.648;8.330;2024-02-15T10:52:44;100601.34;;;13.59;100.00
11525;BME280;5819;49.648;8.330;2024-02-15T10:55:21;100584.09;;;14.05;100.00
11525;BME280;5819;49.648;8.330;2024-02-15T10:57:55;100581.50;;;14.21;100.00
11525;BME280;5819;49.648;8.330;2024-02-15T11:00:27;100576.44;;;14.18;100.00
11525;BME280;5819;49.648;8.330;2024-02-15T11:03:02;100578.66;;;14.25;100.00
11525;BME280;5819;49.648;8.330;2024-02-15T11:05:34;100566.97;;;14.48;100.00
11525;BME280;5819;49.648;8.330;2024-02-15T11:08:06;100555.69;;;14.30;100.00
11525;BME280;5819;49.648;8.330;2024-02-15T11:10:36;100555.69;;;14.30;100.00
11525;BME280;5819;49.648;8.330;2024-02-15T11:13:07;100553.72;;;14.35;100.00
11525;BME280;5819;49.648;8.330;2024-02-15T11:15:44;100543.84;;;14.56;100.00
11525;BME280;5819;49.648;8.330;2024-02-15T11:18:44;100540.38;;;14.56;100.00
11525;BME280;5819;49.648;8.330;2024-02-15T11:21:15;100533.72;;;14.33;100.00
11525;BME280;5819;49.648;8.330;2024-02-15T11:23:45;100530.16;;;14.35;100.00
11525;BME280;5819;49.648;8.330;2024-02-15T11:26:44;100532.59;;;14.38;100.00
11525;BME280;5819;49.648;8.330;2024-02-15T11:29:51;100533.50;;;14.53;100.00
11525;BME280;5819;49.648;8.330;2024-02-15T11:32:38;100530.22;;;14.49;100.00
11525;BME280;5819;49.648;8.330;2024-02-15T11:35:13;100532.53;;;14.40;100.00
11525;BME280;5819;49.648;8.330;2024-02-15T11:37:51;100523.81;;;14.39;100.00
11525;BME280;5819;49.648;8.330;2024-02-15T11:40:21;100515.03;;;14.40;100.00
11525;BME280;5819;49.648;8.330;2024-02-15T11:42:53;100517.38;;;14.45;100.00
11525;BME280;5819;49.648;8.330;2024-02-15T11:45:26;100506.81;;;14.62;100.00
11525;BME280;5819;49.648;8.330;2024-02-15T11:48:01;100513.25;;;14.41;100.00
11525;BME280;5819;49.648;8.330;2024-02-15T11:50:34;100509.97;;;14.37;100.00
11525;BME280;5819;49.648;8.330;2024-02-15T11:53:06;100503.44;;;14.44;100.00
11525;BME280;5819;49.648;8.330;2024-02-15T11:55:39;100494.22;;;14.69;100.00
11525;BME280;5819;49.648;8.330;2024-02-15T11:58:09;100500.44;;;14.52;100.00
11525;BME280;5819;49.648;8.330;2024-02-15T12:01:02;100491.97;;;14.63;100.00
11525;BME280;5819;49.648;8.330;2024-02-15T12:03:52;100485.84;;;14.78;100.00
11525;BME280;5819;49.648;8.330;2024-02-15T12:06:40;100481.44;;;14.78;100.00
11525;BME280;5819;49.648;8.330;2024-02-15T12:09:41;100479.09;;;14.74;100.00
11525;BME280;5819;49.648;8.330;2024-02-15T12:12:33;100467.97;;;15.00;100.00
11525;BME280;5819;49.648;8.330;2024-02-15T12:15:18;100470.50;;;14.72;100.00
11525;BME280;5819;49.648;8.330;2024-02-15T12:18:18;100465.13;;;14.59;100.00
11525;BME280;5819;49.648;8.330;2024-02-15T12:21:05;100462.69;;;14.56;100.00
11525;BME280;5819;49.648;8.330;2024-02-15T12:23:38;100453.88;;;14.57;100.00
11525;BME280;5819;49.648;8.330;2024-02-15T12:26:10;100463.50;;;14.72;100.00
11525;BME280;5819;49.648;8.330;2024-02-15T12:28:42;100464.00;;;14.63;100.00
11525;BME280;5819;49.648;8.330;2024-02-15T12:31:14;100466.03;;;14.58;100.00
11525;BME280;5819;49.648;8.330;2024-02-15T12:33:45;100456.09;;;14.49;100.00
11525;BME280;5819;49.648;8.330;2024-02-15T12:36:19;100463.50;;;14.57;100.00
11525;BME280;5819;49.648;8.330;2024-02-15T12:38:59;100458.19;;;14.58;100.00
11525;BME280;5819;49.648;8.330;2024-02-15T12:41:28;100463.59;;;14.55;100.00
11525;BME280;5819;49.648;8.330;2024-02-15T12:43:58;100460.22;;;14.53;100.00
11525;BME280;5819;49.648;8.330;2024-02-15T12:46:28;100446.69;;;14.61;100.00
11525;BME280;5819;49.648;8.330;2024-02-15T12:49:28;100445.53;;;14.50;100.00
11525;BME280;5819;49.648;8.330;2024-02-15T12:52:32;100438.81;;;14.61;100.00
11525;BME280;5819;49.648;8.330;2024-02-15T12:55:11;100434.75;;;14.71;98.87
11525;BME280;5819;49.648;8.330;2024-02-15T12:57:43;100433.97;;;14.55;98.82
11525;BME280;5819;49.648;8.330;2024-02-15T13:00:18;100437.03;;;14.47;98.57
11525;BME280;5819;49.648;8.330;2024-02-15T13:02:49;100426.56;;;14.47;98.44
11525;BME280;5819;49.648;8.330;2024-02-15T13:05:25;100427.06;;;14.38;97.67
11525;BME280;5819;49.648;8.330;2024-02-15T13:07:55;100427.13;;;14.36;97.15
11525;BME280;5819;49.648;8.330;2024-02-15T13:10:25;100418.28;;;14.39;98.23
11525;BME280;5819;49.648;8.330;2024-02-15T13:12:54;100417.53;;;14.37;100.00
11525;BME280;5819;49.648;8.330;2024-02-15T13:15:24;100428.75;;;14.39;99.79